createdAt,value
2017-08-21T00:00:37.572Z,6.30
2017-08-21T00:03:03.963Z,8.00
2017-08-21T00:05:30.369Z,7.60
2017-08-21T00:07:56.778Z,9.87
2017-08-21T00:10:23.158Z,7.40
2017-08-21T00:12:49.554Z,11.00
2017-08-21T00:15:15.933Z,8.53
2017-08-21T00:17:42.354Z,6.27
2017-08-21T00:20:08.744Z,7.83
2017-08-21T00:22:35.128Z,6.20
2017-08-21T00:25:01.510Z,6.93
2017-08-21T00:27:27.884Z,8.33
2017-08-21T00:29:54.303Z,6.60
2017-08-21T00:32:20.676Z,10.67
2017-08-21T00:34:47.074Z,6.10
2017-08-21T00:37:13.484Z,6.17
2017-08-21T00:39:39.866Z,5.50
2017-08-21T00:42:06.253Z,9.93
2017-08-21T00:44:32.757Z,8.87
2017-08-21T00:46:59.178Z,6.63
2017-08-21T00:49:25.637Z,6.03
2017-08-21T00:51:52.048Z,5.80
2017-08-21T00:54:18.434Z,6.90
2017-08-21T00:56:44.870Z,8.07
2017-08-21T00:59:11.259Z,6.07
2017-08-21T01:01:37.707Z,7.73
2017-08-21T01:04:04.094Z,5.73
2017-08-21T01:06:30.503Z,7.00
2017-08-21T01:08:56.909Z,4.93
2017-08-21T01:11:23.285Z,7.17
2017-08-21T01:13:49.671Z,6.80
2017-08-21T01:16:16.057Z,6.10
2017-08-21T01:18:42.456Z,5.67
2017-08-21T01:21:08.879Z,5.27
2017-08-21T01:23:35.276Z,5.60
2017-08-21T01:26:01.709Z,7.50
2017-08-21T01:28:28.085Z,6.27
2017-08-21T01:30:54.491Z,6.13
2017-08-21T01:33:20.887Z,9.27
2017-08-21T01:35:47.256Z,6.53
2017-08-21T01:38:13.670Z,5.10
2017-08-21T01:40:40.124Z,5.77
2017-08-21T01:43:06.529Z,5.23
2017-08-21T01:45:32.907Z,6.10
2017-08-21T01:47:59.339Z,7.60
2017-08-21T01:50:25.751Z,5.97
2017-08-21T01:52:52.153Z,6.30
2017-08-21T01:55:18.536Z,7.10
2017-08-21T01:57:44.897Z,7.70
2017-08-21T02:00:11.335Z,5.90
2017-08-21T02:02:37.726Z,6.40
2017-08-21T02:05:04.107Z,8.40
2017-08-21T02:07:30.510Z,8.13
2017-08-21T02:09:56.901Z,5.80
2017-08-21T02:12:23.270Z,6.30
2017-08-21T02:14:49.677Z,4.60
2017-08-21T02:17:16.066Z,6.30
2017-08-21T02:19:42.488Z,4.07
2017-08-21T02:22:08.915Z,6.17
2017-08-21T02:24:35.343Z,5.33
2017-08-21T02:27:01.741Z,6.87
2017-08-21T02:29:28.115Z,5.67
2017-08-21T02:31:54.513Z,7.00
2017-08-21T02:34:20.889Z,7.23
2017-08-21T02:36:47.294Z,5.67
2017-08-21T02:39:13.692Z,5.77
2017-08-21T02:41:40.059Z,6.70
2017-08-21T02:44:06.464Z,5.40
2017-08-21T02:46:32.865Z,5.30
2017-08-21T02:48:59.227Z,5.60
2017-08-21T02:51:25.622Z,6.40
2017-08-21T02:53:52.002Z,5.40
2017-08-21T02:56:18.379Z,4.83
2017-08-21T02:58:44.735Z,6.53
2017-08-21T03:01:11.100Z,5.63
2017-08-21T03:03:37.483Z,3.87
2017-08-21T03:06:03.884Z,7.80
2017-08-21T03:08:30.308Z,6.77
2017-08-21T03:10:56.700Z,6.07
2017-08-21T03:13:23.082Z,7.43
2017-08-21T03:15:49.461Z,6.40
2017-08-21T03:18:15.852Z,5.60
2017-08-21T03:20:42.202Z,4.03
2017-08-21T03:23:08.593Z,6.40
2017-08-21T03:25:35.007Z,4.30
2017-08-21T03:28:01.393Z,4.40
2017-08-21T03:31:28.267Z,4.30
2017-08-21T03:33:54.666Z,3.70
2017-08-21T03:36:21.045Z,4.90
2017-08-21T03:38:47.428Z,5.03
2017-08-21T03:41:13.794Z,9.83
2017-08-21T03:43:40.168Z,5.47
2017-08-21T03:46:06.543Z,4.03
2017-08-21T03:48:32.921Z,4.47
2017-08-21T03:50:59.957Z,5.60
2017-08-21T03:53:26.353Z,5.20
2017-08-21T03:55:52.752Z,4.03
2017-08-21T03:58:19.163Z,4.07
2017-08-21T04:00:45.542Z,3.50
2017-08-21T04:03:11.962Z,5.57
2017-08-21T04:05:38.321Z,7.17
2017-08-21T04:08:04.716Z,8.10
2017-08-21T04:10:31.093Z,4.40
2017-08-21T04:12:57.468Z,3.80
2017-08-21T04:15:25.171Z,3.90
2017-08-21T04:17:51.592Z,5.00
2017-08-21T04:20:17.961Z,4.10
2017-08-21T04:22:44.348Z,6.90
2017-08-21T04:25:10.714Z,4.00
2017-08-21T04:27:37.071Z,6.40
2017-08-21T04:30:03.495Z,7.40
2017-08-21T04:32:29.860Z,5.90
2017-08-21T04:34:56.238Z,4.90
2017-08-21T04:37:23.088Z,5.20
2017-08-21T04:39:49.535Z,7.50
2017-08-21T04:42:15.911Z,5.13
2017-08-21T04:44:42.277Z,6.77
2017-08-21T04:47:08.671Z,4.40
2017-08-21T04:49:35.028Z,3.60
2017-08-21T04:52:01.401Z,6.33
2017-08-21T04:54:27.770Z,4.93
2017-08-21T04:56:54.153Z,7.53
2017-08-21T04:59:20.524Z,5.80
2017-08-21T05:01:46.897Z,9.17
2017-08-21T05:04:13.251Z,6.43
2017-08-21T05:06:39.635Z,6.00
2017-08-21T05:09:06.036Z,7.50
2017-08-21T05:11:34.618Z,8.50
2017-08-21T05:14:01.241Z,4.70
2017-08-21T05:16:27.628Z,5.60
2017-08-21T05:18:54.039Z,8.90
2017-08-21T05:21:20.432Z,5.90
2017-08-21T05:23:46.833Z,7.20
2017-08-21T05:26:13.420Z,7.30
2017-08-21T05:28:39.858Z,5.43
2017-08-21T05:31:06.222Z,6.90
2017-08-21T05:33:32.834Z,4.87
2017-08-21T05:35:59.223Z,7.17
2017-08-21T05:38:26.565Z,5.77
2017-08-21T05:40:52.972Z,6.50
2017-08-21T05:43:19.340Z,6.27
2017-08-21T05:45:45.725Z,6.27
2017-08-21T05:48:12.163Z,5.90
2017-08-21T05:50:38.616Z,6.60
2017-08-21T05:53:05.039Z,6.43
2017-08-21T05:55:31.418Z,7.33
2017-08-21T05:57:57.842Z,6.80
2017-08-21T06:00:24.258Z,6.43
2017-08-21T06:02:50.659Z,8.17
2017-08-21T06:05:17.075Z,8.33
2017-08-21T06:07:43.474Z,5.73
2017-08-21T06:10:11.535Z,6.70
2017-08-21T06:12:37.954Z,6.07
2017-08-21T06:15:04.337Z,11.60
2017-08-21T06:17:30.710Z,6.50
2017-08-21T06:19:57.123Z,8.23
2017-08-21T06:22:23.489Z,9.90
2017-08-21T06:24:49.857Z,11.20
2017-08-21T06:27:16.254Z,9.20
2017-08-21T06:29:42.655Z,12.80
2017-08-21T06:32:09.032Z,11.10
2017-08-21T06:34:35.406Z,9.60
2017-08-21T06:37:01.794Z,8.57
2017-08-21T06:39:28.193Z,11.17
2017-08-21T06:41:55.754Z,8.60
2017-08-21T06:44:23.069Z,11.27
2017-08-21T06:46:49.494Z,11.57
2017-08-21T06:49:18.167Z,11.90
2017-08-21T06:51:50.436Z,9.73
2017-08-21T06:54:17.066Z,11.43
2017-08-21T06:56:44.261Z,8.37
2017-08-21T06:59:10.743Z,13.13
2017-08-21T07:01:37.134Z,9.57
2017-08-21T07:04:10.779Z,8.30
2017-08-21T07:06:37.269Z,11.57
2017-08-21T07:09:03.729Z,11.53
2017-08-21T07:11:30.105Z,18.17
2017-08-21T07:13:56.520Z,9.93
2017-08-21T07:16:22.913Z,11.07
2017-08-21T07:18:49.310Z,12.10
2017-08-21T07:21:15.769Z,15.00
2017-08-21T07:23:42.164Z,11.13
2017-08-21T07:26:08.548Z,11.43
2017-08-21T07:28:34.983Z,8.73
2017-08-21T07:31:01.409Z,13.33
2017-08-21T07:33:27.784Z,12.63
2017-08-21T07:35:54.216Z,8.47
2017-08-21T07:38:20.621Z,8.27
2017-08-21T07:40:47.001Z,10.10
2017-08-21T07:43:13.408Z,13.40
2017-08-21T07:45:39.786Z,12.80
2017-08-21T07:48:06.173Z,12.17
2017-08-21T07:50:32.548Z,10.27
2017-08-21T07:52:58.941Z,11.80
2017-08-21T07:55:25.412Z,9.50
2017-08-21T07:57:51.799Z,9.90
2017-08-21T08:00:18.191Z,8.07
2017-08-21T08:02:44.558Z,6.47
2017-08-21T08:05:10.922Z,10.67
2017-08-21T08:07:37.337Z,11.40
2017-08-21T08:10:03.699Z,5.00
2017-08-21T08:12:30.093Z,10.40
2017-08-21T08:14:56.565Z,4.60
2017-08-21T08:17:24.480Z,5.60
2017-08-21T08:19:51.245Z,4.70
2017-08-21T08:22:18.843Z,6.63
2017-08-21T08:24:46.784Z,7.43
2017-08-21T08:27:13.395Z,7.00
2017-08-21T08:29:40.293Z,7.87
2017-08-21T08:32:13.228Z,3.03
2017-08-21T08:34:40.183Z,10.17
2017-08-21T08:37:11.822Z,4.40
2017-08-21T08:39:38.313Z,6.47
2017-08-21T08:42:05.634Z,4.23
2017-08-21T08:44:32.412Z,3.90
2017-08-21T08:47:00.125Z,5.30
2017-08-21T08:49:26.697Z,3.80
2017-08-21T08:51:54.560Z,5.47
2017-08-21T08:54:22.181Z,5.90
2017-08-21T08:56:49.758Z,3.83
2017-08-21T08:59:16.669Z,8.30
2017-08-21T09:01:48.415Z,7.67
2017-08-21T09:04:16.968Z,5.00
2017-08-21T09:06:43.490Z,3.50
2017-08-21T09:09:10.191Z,6.90
2017-08-21T09:11:37.388Z,5.83
2017-08-21T09:14:04.117Z,3.90
2017-08-21T09:16:36.502Z,5.40
2017-08-21T09:19:03.297Z,4.40
2017-08-21T09:21:34.938Z,5.23
2017-08-21T09:24:01.488Z,5.83
2017-08-21T09:26:28.257Z,3.83
2017-08-21T09:29:00.099Z,3.53
2017-08-21T09:31:27.174Z,6.70
2017-08-21T09:33:54.586Z,5.63
2017-08-21T09:36:21.410Z,4.70
2017-08-21T09:38:48.103Z,4.30
2017-08-21T09:41:19.781Z,2.97
2017-08-21T09:43:46.679Z,4.17
2017-08-21T09:46:16.568Z,5.03
2017-08-21T09:48:43.159Z,4.63
2017-08-21T09:51:09.857Z,4.13
2017-08-21T09:53:37.202Z,4.57
2017-08-21T09:56:04.303Z,4.40
2017-08-21T09:58:31.130Z,6.10
2017-08-21T10:00:57.606Z,6.17
2017-08-21T10:03:24.415Z,4.27
2017-08-21T10:05:51.122Z,3.53
2017-08-21T10:08:17.543Z,5.97
2017-08-21T10:10:50.519Z,2.83
2017-08-21T10:13:17.039Z,7.13
2017-08-21T10:15:46.593Z,2.73
2017-08-21T10:18:13.889Z,5.13
2017-08-21T10:20:46.110Z,8.60
2017-08-21T10:23:18.148Z,4.10
2017-08-21T10:25:44.636Z,4.20
2017-08-21T10:28:11.572Z,4.43
2017-08-21T10:30:38.870Z,4.93
2017-08-21T10:33:05.678Z,3.93
2017-08-21T10:35:32.595Z,3.23
2017-08-21T10:38:00.169Z,3.03
2017-08-21T10:40:26.757Z,6.47
2017-08-21T10:42:53.198Z,4.53
2017-08-21T10:45:22.709Z,2.57
2017-08-21T10:47:49.183Z,8.57
2017-08-21T10:50:15.958Z,4.50
2017-08-21T10:52:47.710Z,4.30
2017-08-21T10:55:14.064Z,3.60
2017-08-21T10:57:40.544Z,7.33
2017-08-21T11:00:08.367Z,4.73
2017-08-21T11:02:35.019Z,3.40
2017-08-21T11:05:01.506Z,2.47
2017-08-21T11:07:33.048Z,7.90
2017-08-21T11:09:59.689Z,2.67
2017-08-21T11:12:30.051Z,4.53
2017-08-21T11:14:57.356Z,6.73
2017-08-21T11:17:23.839Z,6.13
2017-08-21T11:19:55.844Z,2.37
2017-08-21T11:22:25.364Z,3.70
2017-08-21T11:25:00.304Z,3.83
2017-08-21T11:27:27.401Z,3.30
2017-08-21T11:29:53.878Z,9.50
2017-08-21T11:32:20.445Z,4.40
2017-08-21T11:34:46.850Z,5.20
2017-08-21T11:37:13.837Z,4.10
2017-08-21T11:39:40.228Z,6.17
2017-08-21T11:42:06.646Z,3.40
2017-08-21T11:44:33.051Z,4.40
2017-08-21T11:46:59.578Z,5.70
2017-08-21T11:49:31.671Z,5.93
2017-08-21T11:52:03.768Z,2.60
2017-08-21T11:54:30.307Z,5.40
2017-08-21T11:56:56.855Z,4.27
2017-08-21T11:59:23.347Z,5.13
2017-08-21T12:01:49.816Z,2.90
2017-08-21T12:04:20.924Z,4.20
2017-08-21T12:06:48.693Z,3.77
2017-08-21T12:09:15.766Z,1.90
2017-08-21T12:11:42.219Z,3.50
2017-08-21T12:14:09.811Z,4.10
2017-08-21T12:16:36.668Z,7.37
2017-08-21T12:19:03.076Z,4.87
2017-08-21T12:21:29.792Z,5.60
2017-08-21T12:23:56.196Z,4.17
2017-08-21T12:26:22.805Z,5.00
2017-08-21T12:28:50.540Z,3.33
2017-08-21T12:31:16.922Z,7.27
2017-08-21T12:33:43.322Z,5.33
2017-08-21T12:36:09.700Z,2.40
2017-08-21T12:38:36.114Z,3.87
2017-08-21T12:41:02.533Z,4.30
2017-08-21T12:43:28.909Z,2.33
2017-08-21T12:45:55.299Z,3.00
2017-08-21T12:48:21.700Z,3.67
2017-08-21T12:50:48.087Z,3.23
2017-08-21T12:53:14.511Z,5.30
2017-08-21T12:55:40.922Z,3.53
2017-08-21T12:58:07.325Z,2.97
2017-08-21T13:00:33.743Z,5.03
2017-08-21T13:03:00.161Z,5.43
2017-08-21T13:05:26.548Z,3.43
2017-08-21T13:07:52.943Z,3.00
2017-08-21T13:10:19.337Z,5.30
2017-08-21T13:12:45.744Z,9.23
2017-08-21T13:15:12.171Z,4.23
2017-08-21T13:17:38.550Z,3.10
2017-08-21T13:20:04.961Z,4.10
2017-08-21T13:22:31.889Z,5.30
2017-08-21T13:24:58.297Z,3.87
2017-08-21T13:27:24.728Z,4.40
2017-08-21T13:29:51.098Z,4.90
2017-08-21T13:32:17.485Z,2.83
2017-08-21T13:34:43.831Z,3.90
2017-08-21T13:37:10.193Z,2.50
2017-08-21T13:39:36.583Z,4.13
2017-08-21T13:42:03.004Z,4.10
2017-08-21T13:44:29.385Z,4.00
2017-08-21T13:46:55.809Z,3.10
2017-08-21T13:49:22.214Z,3.43
2017-08-21T13:51:48.623Z,3.10
2017-08-21T13:54:15.021Z,5.00
2017-08-21T13:56:41.385Z,6.20
2017-08-21T13:59:07.784Z,3.97
2017-08-21T14:01:34.185Z,3.63
2017-08-21T14:04:00.568Z,5.60
2017-08-21T14:06:26.962Z,4.90
2017-08-21T14:08:54.131Z,4.60
2017-08-21T14:11:20.548Z,2.70
2017-08-21T14:13:46.973Z,4.63
2017-08-21T14:16:13.389Z,4.23
2017-08-21T14:18:39.777Z,3.97
2017-08-21T14:21:06.542Z,3.30
2017-08-21T14:23:32.959Z,3.50
2017-08-21T14:25:59.401Z,4.93
2017-08-21T14:28:25.998Z,3.47
2017-08-21T14:30:52.387Z,2.43
2017-08-21T14:33:18.754Z,4.17
2017-08-21T14:35:45.159Z,3.90
2017-08-21T14:38:11.530Z,6.93
2017-08-21T14:40:37.901Z,4.87
2017-08-21T14:43:04.276Z,6.50
2017-08-21T14:45:30.705Z,3.40
2017-08-21T14:47:57.110Z,4.77
2017-08-21T14:50:23.564Z,4.90
2017-08-21T14:52:49.945Z,4.03
2017-08-21T14:55:16.332Z,3.97
2017-08-21T14:57:42.742Z,2.60
2017-08-21T15:00:09.124Z,4.50
2017-08-21T15:02:35.483Z,7.97
2017-08-21T15:05:01.852Z,3.07
2017-08-21T15:07:28.244Z,4.47
2017-08-21T15:09:54.647Z,4.50
2017-08-21T15:12:21.057Z,5.73
2017-08-21T15:14:47.422Z,2.93
2017-08-21T15:17:13.813Z,8.00
2017-08-21T15:19:40.324Z,3.83
2017-08-21T15:22:06.792Z,2.77
2017-08-21T15:24:33.630Z,2.30
2017-08-21T15:27:00.212Z,7.10
2017-08-21T15:29:27.123Z,3.70
2017-08-21T15:31:53.506Z,3.80
2017-08-21T15:34:19.899Z,3.40
2017-08-21T15:36:46.272Z,4.47
2017-08-21T15:39:12.659Z,3.70
2017-08-21T15:41:39.829Z,4.07
2017-08-21T15:44:06.757Z,4.43
2017-08-21T15:46:33.501Z,4.50
2017-08-21T15:48:59.889Z,3.93
2017-08-21T15:51:26.339Z,4.23
2017-08-21T15:53:53.942Z,3.50
2017-08-21T15:56:20.730Z,4.00
2017-08-21T15:58:47.132Z,5.00
2017-08-21T16:01:13.513Z,3.47
2017-08-21T16:03:39.935Z,4.37
2017-08-21T16:06:06.321Z,6.17
2017-08-21T16:08:32.740Z,4.07
2017-08-21T16:10:59.167Z,2.80
2017-08-21T16:13:25.571Z,6.00
2017-08-21T16:15:52.346Z,4.70
2017-08-21T16:18:19.164Z,3.73
2017-08-21T16:20:46.957Z,5.97
2017-08-21T16:23:13.611Z,7.20
2017-08-21T16:25:40.042Z,5.50
2017-08-21T16:28:06.439Z,4.20
2017-08-21T16:30:32.828Z,3.13
2017-08-21T16:32:59.281Z,3.33
2017-08-21T16:35:25.936Z,5.23
2017-08-21T16:37:52.398Z,4.23
2017-08-21T16:40:18.815Z,10.73
2017-08-21T16:42:45.208Z,3.03
2017-08-21T16:45:11.662Z,8.20
2017-08-21T16:47:38.441Z,4.03
2017-08-21T16:50:04.869Z,3.80
2017-08-21T16:52:31.244Z,3.90
2017-08-21T16:54:57.638Z,4.23
2017-08-21T16:57:24.034Z,4.07
2017-08-21T16:59:50.408Z,4.00
2017-08-21T17:02:16.779Z,6.87
2017-08-21T17:04:43.141Z,6.40
2017-08-21T17:07:09.627Z,4.50
2017-08-21T17:09:36.053Z,6.33
2017-08-21T17:12:02.433Z,4.83
2017-08-21T17:14:28.791Z,3.20
2017-08-21T17:16:55.184Z,5.23
2017-08-21T17:19:21.663Z,4.80
2017-08-21T17:21:48.058Z,4.33
2017-08-21T17:24:14.446Z,4.37
2017-08-21T17:26:40.811Z,7.77
2017-08-21T17:29:07.260Z,4.00
2017-08-21T17:31:33.624Z,3.30
2017-08-21T17:34:00.003Z,4.63
2017-08-21T17:36:26.386Z,5.53
2017-08-21T17:38:52.731Z,4.27
2017-08-21T17:41:19.106Z,4.20
2017-08-21T17:43:45.480Z,3.53
2017-08-21T17:46:11.845Z,4.13
2017-08-21T17:48:38.217Z,5.47
2017-08-21T17:51:04.620Z,3.73
2017-08-21T17:53:31.005Z,5.33
2017-08-21T17:55:57.363Z,4.90
2017-08-21T17:58:23.808Z,7.60
2017-08-21T18:00:50.853Z,4.40
2017-08-21T18:03:17.249Z,5.63
2017-08-21T18:05:43.637Z,7.87
2017-08-21T18:08:10.026Z,6.67
2017-08-21T18:10:36.430Z,9.37
2017-08-21T18:13:02.826Z,6.17
2017-08-21T18:15:29.203Z,6.30
2017-08-21T18:17:55.584Z,5.80
2017-08-21T18:20:21.976Z,8.17
2017-08-21T18:22:48.370Z,11.20
2017-08-21T18:25:14.875Z,8.03
2017-08-21T18:27:42.805Z,8.23
2017-08-21T18:30:10.478Z,6.87
2017-08-21T18:32:37.740Z,5.00
2017-08-21T18:35:04.130Z,10.87
2017-08-21T18:37:30.517Z,5.03
2017-08-21T18:39:56.948Z,7.50
2017-08-21T18:42:23.311Z,6.73
2017-08-21T18:44:49.688Z,8.60
2017-08-21T18:47:16.065Z,6.13
2017-08-21T18:49:42.467Z,9.80
2017-08-21T18:52:08.842Z,6.93
2017-08-21T18:54:35.297Z,7.07
2017-08-21T18:57:01.736Z,6.80
2017-08-21T18:59:28.129Z,8.20
2017-08-21T19:01:54.522Z,7.33
2017-08-21T19:04:20.914Z,5.93
2017-08-21T19:06:47.960Z,6.30
2017-08-21T19:09:14.400Z,7.50
2017-08-21T19:11:40.809Z,8.23
2017-08-21T19:14:07.232Z,8.13
2017-08-21T19:16:33.635Z,7.07
2017-08-21T19:19:00.006Z,7.20
2017-08-21T19:21:26.402Z,7.27
2017-08-21T19:23:55.765Z,6.80
2017-08-21T19:26:22.303Z,9.13
2017-08-21T19:28:48.676Z,9.50
2017-08-21T19:31:15.108Z,8.33
2017-08-21T19:33:41.994Z,6.73
2017-08-21T19:36:08.464Z,6.77
2017-08-21T19:38:34.859Z,9.77
2017-08-21T19:41:01.222Z,8.17
2017-08-21T19:43:27.655Z,9.47
2017-08-21T19:45:54.103Z,8.73
2017-08-21T19:48:20.508Z,9.47
2017-08-21T19:50:46.865Z,7.43
2017-08-21T19:53:13.290Z,11.77
2017-08-21T19:55:39.835Z,9.20
2017-08-21T19:58:06.503Z,8.23
2017-08-21T20:00:33.115Z,9.03
2017-08-21T20:02:59.512Z,13.43
2017-08-21T20:05:25.868Z,7.47
2017-08-21T20:07:52.241Z,7.97
2017-08-21T20:10:18.999Z,7.70
2017-08-21T20:12:45.391Z,10.90
2017-08-21T20:15:11.793Z,6.90
2017-08-21T20:17:38.206Z,7.60
2017-08-21T20:20:04.587Z,7.20
2017-08-21T20:22:31.043Z,8.30
2017-08-21T20:24:57.446Z,8.40
2017-08-21T20:27:23.812Z,8.53
2017-08-21T20:29:50.181Z,8.47
2017-08-21T20:32:16.539Z,8.40
2017-08-21T20:34:43.225Z,13.10
2017-08-21T20:37:09.636Z,14.57
2017-08-21T20:39:36.451Z,10.70
2017-08-21T20:42:02.812Z,9.67
2017-08-21T20:44:29.177Z,8.93
2017-08-21T20:46:55.562Z,8.30
2017-08-21T20:49:21.922Z,7.50
2017-08-21T20:51:49.273Z,9.03
2017-08-21T20:54:16.135Z,8.77
2017-08-21T20:56:44.160Z,9.10
2017-08-21T20:59:11.093Z,8.63
2017-08-21T21:01:37.532Z,9.40
2017-08-21T21:04:04.012Z,10.00
2017-08-21T21:06:30.426Z,9.50
2017-08-21T21:08:56.797Z,8.70
2017-08-21T21:11:23.199Z,13.13
2017-08-21T21:13:49.590Z,12.40
2017-08-21T21:16:16.011Z,8.73
2017-08-21T21:18:42.412Z,11.47
2017-08-21T21:21:09.333Z,8.47
2017-08-21T21:23:35.746Z,10.23
2017-08-21T21:26:02.123Z,10.67
2017-08-21T21:28:28.491Z,10.53
2017-08-21T21:30:55.654Z,12.80
2017-08-21T21:33:22.857Z,8.57
2017-08-21T21:35:49.543Z,9.07
2017-08-21T21:38:16.251Z,9.27
2017-08-21T21:40:42.643Z,9.63
2017-08-21T21:43:09.051Z,9.90
2017-08-21T21:45:35.450Z,9.20
2017-08-21T21:48:01.871Z,9.60
2017-08-21T21:50:28.258Z,9.17
2017-08-21T21:52:54.652Z,12.40
2017-08-21T21:55:21.070Z,10.50
2017-08-21T21:57:47.461Z,11.87
2017-08-21T22:00:13.847Z,11.13
2017-08-21T22:02:40.237Z,10.87
2017-08-21T22:05:06.651Z,10.60
2017-08-21T22:07:33.037Z,9.97
2017-08-21T22:09:59.440Z,9.60
2017-08-21T22:12:25.863Z,11.50
2017-08-21T22:14:52.254Z,10.87
2017-08-21T22:17:18.685Z,11.30
2017-08-21T22:19:45.109Z,9.87
2017-08-21T22:22:11.497Z,9.10
2017-08-21T22:24:37.881Z,10.87
2017-08-21T22:27:04.263Z,10.87
2017-08-21T22:29:30.813Z,11.80
2017-08-21T22:31:57.232Z,12.40
2017-08-21T22:34:24.136Z,10.47
2017-08-21T22:36:50.558Z,12.57
2017-08-21T22:39:16.918Z,11.10
2017-08-21T22:41:43.330Z,10.77
2017-08-21T22:44:09.709Z,11.70
2017-08-21T22:46:36.140Z,10.80
2017-08-21T22:49:02.524Z,11.70
2017-08-21T22:51:28.872Z,11.33
2017-08-21T22:53:55.289Z,10.63
2017-08-21T22:56:21.683Z,9.87
2017-08-21T22:58:48.040Z,10.37
2017-08-21T23:01:14.994Z,9.70
2017-08-21T23:03:41.432Z,9.30
2017-08-21T23:06:07.856Z,12.30
2017-08-21T23:08:34.242Z,9.70
2017-08-21T23:11:00.633Z,10.17
2017-08-21T23:13:27.218Z,10.47
2017-08-21T23:15:54.104Z,10.70
2017-08-21T23:18:20.557Z,13.40
2017-08-21T23:20:47.015Z,9.63
2017-08-21T23:23:13.420Z,9.50
2017-08-21T23:25:39.837Z,9.97
2017-08-21T23:28:06.529Z,11.23
2017-08-21T23:30:34.234Z,10.37
2017-08-21T23:33:04.220Z,14.33
2017-08-21T23:35:30.947Z,8.93
2017-08-21T23:37:57.328Z,9.63
2017-08-21T23:40:24.178Z,9.80
2017-08-21T23:42:50.635Z,9.90
2017-08-21T23:45:18.313Z,9.07
2017-08-21T23:47:44.807Z,9.53
2017-08-21T23:50:11.836Z,9.23
2017-08-21T23:52:38.238Z,11.83
2017-08-21T23:55:04.670Z,10.47
2017-08-21T23:57:31.072Z,9.37
2017-08-21T23:59:57.457Z,10.07
